sensor_id;sensor_type;location;lat;lon;timestamp;temperature;humidity
30473;DHT22;17263;48.160;11.452;2023-05-18T00:01:11;7.90;99.90
30473;DHT22;17263;48.160;11.452;2023-05-18T00:03:37;7.90;99.90
30473;DHT22;17263;48.160;11.452;2023-05-18T00:06:04;7.90;99.90
30473;DHT22;17263;48.160;11.452;2023-05-18T00:08:33;7.80;99.90
30473;DHT22;17263;48.160;11.452;2023-05-18T00:11:00;7.70;99.90
30473;DHT22;17263;48.160;11.452;2023-05-18T00:13:26;7.70;99.90
30473;DHT22;17263;48.160;11.452;2023-05-18T00:15:52;7.70;99.90
30473;DHT22;17263;48.160;11.452;2023-05-18T00:18:18;7.70;99.90
30473;DHT22;17263;48.160;11.452;2023-05-18T00:20:49;7.70;99.90
30473;DHT22;17263;48.160;11.452;2023-05-18T00:23:16;7.70;99.90
30473;DHT22;17263;48.160;11.452;2023-05-18T00:25:42;7.70;99.90
30473;DHT22;17263;48.160;11.452;2023-05-18T00:28:08;7.70;99.90
30473;DHT22;17263;48.160;11.452;2023-05-18T00:30:34;7.70;99.90
30473;DHT22;17263;48.160;11.452;2023-05-18T00:33:00;7.70;99.90
30473;DHT22;17263;48.160;11.452;2023-05-18T00:35:26;7.70;99.90
30473;DHT22;17263;48.160;11.452;2023-05-18T00:37:52;7.70;99.90
30473;DHT22;17263;48.160;11.452;2023-05-18T00:40:18;7.70;99.90
30473;DHT22;17263;48.160;11.452;2023-05-18T00:42:44;7.70;99.90
30473;DHT22;17263;48.160;11.452;2023-05-18T00:45:10;7.70;99.90
30473;DHT22;17263;48.160;11.452;2023-05-18T00:47:36;7.60;99.90
30473;DHT22;17263;48.160;11.452;2023-05-18T00:50:02;7.60;99.90
30473;DHT22;17263;48.160;11.452;2023-05-18T00:52:29;7.60;99.90
30473;DHT22;17263;48.160;11.452;2023-05-18T00:54:55;7.60;99.90
30473;DHT22;17263;48.160;11.452;2023-05-18T00:57:23;7.50;99.90
30473;DHT22;17263;48.160;11.452;2023-05-18T00:59:49;7.50;99.90
30473;DHT22;17263;48.160;11.452;2023-05-18T01:02:15;7.40;99.90
30473;DHT22;17263;48.160;11.452;2023-05-18T01:04:42;7.40;99.90
30473;DHT22;17263;48.160;11.452;2023-05-18T01:07:08;7.40;99.90
30473;DHT22;17263;48.160;11.452;2023-05-18T01:09:35;7.30;99.90
30473;DHT22;17263;48.160;11.452;2023-05-18T01:12:16;7.20;99.90
30473;DHT22;17263;48.160;11.452;2023-05-18T01:14:50;7.20;99.90
30473;DHT22;17263;48.160;11.452;2023-05-18T01:22:49;6.90;99.90
30473;DHT22;17263;48.160;11.452;2023-05-18T01:27:54;6.90;99.90
30473;DHT22;17263;48.160;11.452;2023-05-18T01:30:22;6.90;99.90
30473;DHT22;17263;48.160;11.452;2023-05-18T01:32:48;6.90;99.90
30473;DHT22;17263;48.160;11.452;2023-05-18T01:35:14;6.90;99.90
30473;DHT22;17263;48.160;11.452;2023-05-18T01:37:40;6.90;99.90
30473;DHT22;17263;48.160;11.452;2023-05-18T01:40:07;6.90;99.90
30473;DHT22;17263;48.160;11.452;2023-05-18T01:42:37;6.90;99.90
30473;DHT22;17263;48.160;11.452;2023-05-18T01:45:10;6.90;99.90
30473;DHT22;17263;48.160;11.452;2023-05-18T01:47:40;6.90;99.90
30473;DHT22;17263;48.160;11.452;2023-05-18T01:50:13;6.90;99.90
30473;DHT22;17263;48.160;11.452;2023-05-18T01:52:59;6.90;99.90
30473;DHT22;17263;48.160;11.452;2023-05-18T01:55:30;6.90;99.90
30473;DHT22;17263;48.160;11.452;2023-05-18T01:57:59;6.80;99.90
30473;DHT22;17263;48.160;11.452;2023-05-18T02:00:26;6.80;99.90
30473;DHT22;17263;48.160;11.452;2023-05-18T02:02:52;6.80;99.90
30473;DHT22;17263;48.160;11.452;2023-05-18T02:05:18;6.70;99.90
30473;DHT22;17263;48.160;11.452;2023-05-18T02:07:44;6.70;99.90
30473;DHT22;17263;48.160;11.452;2023-05-18T02:10:12;6.70;99.90
30473;DHT22;17263;48.160;11.452;2023-05-18T02:12:38;6.60;99.90
30473;DHT22;17263;48.160;11.452;2023-05-18T02:15:05;6.60;99.90
30473;DHT22;17263;48.160;11.452;2023-05-18T02:17:32;6.50;99.90
30473;DHT22;17263;48.160;11.452;2023-05-18T02:19:58;6.50;99.90
30473;DHT22;17263;48.160;11.452;2023-05-18T02:22:24;6.40;99.90
30473;DHT22;17263;48.160;11.452;2023-05-18T02:24:51;6.40;99.90
30473;DHT22;17263;48.160;11.452;2023-05-18T02:27:18;6.40;99.90
30473;DHT22;17263;48.160;11.452;2023-05-18T02:29:44;6.40;99.90
30473;DHT22;17263;48.160;11.452;2023-05-18T02:32:10;6.30;99.90
30473;DHT22;17263;48.160;11.452;2023-05-18T02:34:36;6.30;99.90
30473;DHT22;17263;48.160;11.452;2023-05-18T02:37:03;6.40;99.90
30473;DHT22;17263;48.160;11.452;2023-05-18T02:39:29;6.40;99.90
30473;DHT22;17263;48.160;11.452;2023-05-18T02:41:56;6.40;99.90
30473;DHT22;17263;48.160;11.452;2023-05-18T02:44:22;6.40;99.90
30473;DHT22;17263;48.160;11.452;2023-05-18T02:46:48;6.40;99.90
30473;DHT22;17263;48.160;11.452;2023-05-18T02:49:14;6.40;99.90
30473;DHT22;17263;48.160;11.452;2023-05-18T02:51:40;6.40;99.90
30473;DHT22;17263;48.160;11.452;2023-05-18T02:54:06;6.40;99.90
30473;DHT22;17263;48.160;11.452;2023-05-18T02:56:32;6.40;99.90
30473;DHT22;17263;48.160;11.452;2023-05-18T02:58:58;6.30;99.90
30473;DHT22;17263;48.160;11.452;2023-05-18T03:01:25;6.30;99.90
30473;DHT22;17263;48.160;11.452;2023-05-18T03:03:52;6.40;99.90
30473;DHT22;17263;48.160;11.452;2023-05-18T03:06:19;6.30;99.90
30473;DHT22;17263;48.160;11.452;2023-05-18T03:08:51;6.30;99.90
30473;DHT22;17263;48.160;11.452;2023-05-18T03:11:21;6.30;99.90
30473;DHT22;17263;48.160;11.452;2023-05-18T03:13:47;6.30;99.90
30473;DHT22;17263;48.160;11.452;2023-05-18T03:16:13;6.30;99.90
30473;DHT22;17263;48.160;11.452;2023-05-18T03:18:40;6.30;99.90
30473;DHT22;17263;48.160;11.452;2023-05-18T03:21:06;6.30;99.90
30473;DHT22;17263;48.160;11.452;2023-05-18T03:23:33;6.30;99.90
30473;DHT22;17263;48.160;11.452;2023-05-18T03:25:59;6.30;99.90
30473;DHT22;17263;48.160;11.452;2023-05-18T03:28:29;6.30;99.90
30473;DHT22;17263;48.160;11.452;2023-05-18T03:30:56;6.30;99.90
30473;DHT22;17263;48.160;11.452;2023-05-18T03:33:22;6.20;99.90
30473;DHT22;17263;48.160;11.452;2023-05-18T03:35:48;6.20;99.90
30473;DHT22;17263;48.160;11.452;2023-05-18T03:38:14;6.20;99.90
30473;DHT22;17263;48.160;11.452;2023-05-18T03:40:41;6.10;99.90
30473;DHT22;17263;48.160;11.452;2023-05-18T03:43:07;6.10;99.90
30473;DHT22;17263;48.160;11.452;2023-05-18T03:45:33;6.10;99.90
30473;DHT22;17263;48.160;11.452;2023-05-18T03:47:59;6.10;99.90
30473;DHT22;17263;48.160;11.452;2023-05-18T03:50:25;6.10;99.90
30473;DHT22;17263;48.160;11.452;2023-05-18T03:52:53;6.10;99.90
30473;DHT22;17263;48.160;11.452;2023-05-18T03:55:20;6.20;99.90
30473;DHT22;17263;48.160;11.452;2023-05-18T03:57:47;6.20;99.90
30473;DHT22;17263;48.160;11.452;2023-05-18T04:00:13;6.20;99.90
30473;DHT22;17263;48.160;11.452;2023-05-18T04:02:40;6.20;99.90
30473;DHT22;17263;48.160;11.452;2023-05-18T04:05:07;6.20;99.90
30473;DHT22;17263;48.160;11.452;2023-05-18T04:07:33;6.20;99.90
30473;DHT22;17263;48.160;11.452;2023-05-18T04:10:10;6.20;99.90
30473;DHT22;17263;48.160;11.452;2023-05-18T04:12:36;6.30;99.90
30473;DHT22;17263;48.160;11.452;2023-05-18T04:15:03;6.30;99.90
30473;DHT22;17263;48.160;11.452;2023-05-18T04:17:29;6.30;99.90
30473;DHT22;17263;48.160;11.452;2023-05-18T04:19:55;6.40;99.90
30473;DHT22;17263;48.160;11.452;2023-05-18T04:22:21;6.40;99.90
30473;DHT22;17263;48.160;11.452;2023-05-18T04:24:47;6.40;99.90
30473;DHT22;17263;48.160;11.452;2023-05-18T04:27:13;6.50;99.90
30473;DHT22;17263;48.160;11.452;2023-05-18T04:29:40;6.50;99.90
30473;DHT22;17263;48.160;11.452;2023-05-18T04:32:09;6.50;99.90
30473;DHT22;17263;48.160;11.452;2023-05-18T04:34:35;6.60;99.90
30473;DHT22;17263;48.160;11.452;2023-05-18T04:37:03;6.60;99.90
30473;DHT22;17263;48.160;11.452;2023-05-18T04:39:33;6.70;99.90
30473;DHT22;17263;48.160;11.452;2023-05-18T04:41:59;6.80;99.90
30473;DHT22;17263;48.160;11.452;2023-05-18T04:44:29;6.90;99.90
30473;DHT22;17263;48.160;11.452;2023-05-18T04:46:59;7.00;99.90
30473;DHT22;17263;48.160;11.452;2023-05-18T04:49:25;7.20;99.90
30473;DHT22;17263;48.160;11.452;2023-05-18T04:51:54;7.30;99.90
30473;DHT22;17263;48.160;11.452;2023-05-18T04:54:24;7.70;99.90
30473;DHT22;17263;48.160;11.452;2023-05-18T04:56:51;8.20;99.90
30473;DHT22;17263;48.160;11.452;2023-05-18T04:59:18;8.90;99.90
30473;DHT22;17263;48.160;11.452;2023-05-18T05:01:44;9.70;99.90
30473;DHT22;17263;48.160;11.452;2023-05-18T05:04:11;10.40;99.90
30473;DHT22;17263;48.160;11.452;2023-05-18T05:06:37;11.20;99.90
30473;DHT22;17263;48.160;11.452;2023-05-18T05:09:04;11.80;99.90
30473;DHT22;17263;48.160;11.452;2023-05-18T05:11:30;12.40;99.90
30473;DHT22;17263;48.160;11.452;2023-05-18T05:13:56;13.00;99.90
30473;DHT22;17263;48.160;11.452;2023-05-18T05:16:22;13.40;99.90
30473;DHT22;17263;48.160;11.452;2023-05-18T05:18:48;13.90;99.90
30473;DHT22;17263;48.160;11.452;2023-05-18T05:21:14;14.20;99.90
30473;DHT22;17263;48.160;11.452;2023-05-18T05:23:40;14.60;99.90
30473;DHT22;17263;48.160;11.452;2023-05-18T05:26:06;14.80;99.90
30473;DHT22;17263;48.160;11.452;2023-05-18T05:28:32;15.00;99.90
30473;DHT22;17263;48.160;11.452;2023-05-18T05:30:58;15.20;99.90
30473;DHT22;17263;48.160;11.452;2023-05-18T05:33:24;15.30;99.90
30473;DHT22;17263;48.160;11.452;2023-05-18T05:35:50;15.30;99.90
30473;DHT22;17263;48.160;11.452;2023-05-18T05:38:16;15.70;99.90
30473;DHT22;17263;48.160;11.452;2023-05-18T05:40:42;16.00;99.90
30473;DHT22;17263;48.160;11.452;2023-05-18T05:43:08;16.30;99.90
30473;DHT22;17263;48.160;11.452;2023-05-18T05:45:34;16.50;99.90
30473;DHT22;17263;48.160;11.452;2023-05-18T05:48:00;16.60;99.90
30473;DHT22;17263;48.160;11.452;2023-05-18T05:50:26;16.70;99.90
30473;DHT22;17263;48.160;11.452;2023-05-18T05:52:53;16.80;99.90
30473;DHT22;17263;48.160;11.452;2023-05-18T05:55:19;16.90;99.90
30473;DHT22;17263;48.160;11.452;2023-05-18T05:57:45;16.90;99.90
30473;DHT22;17263;48.160;11.452;2023-05-18T06:00:11;16.90;99.90
30473;DHT22;17263;48.160;11.452;2023-05-18T06:02:38;17.00;99.90
30473;DHT22;17263;48.160;11.452;2023-05-18T06:05:07;17.10;99.90
30473;DHT22;17263;48.160;11.452;2023-05-18T06:07:34;17.10;99.90
30473;DHT22;17263;48.160;11.452;2023-05-18T06:10:00;17.30;99.90
30473;DHT22;17263;48.160;11.452;2023-05-18T06:12:26;17.50;99.90
30473;DHT22;17263;48.160;11.452;2023-05-18T06:14:54;17.70;99.90
30473;DHT22;17263;48.160;11.452;2023-05-18T06:17:24;18.10;99.90
30473;DHT22;17263;48.160;11.452;2023-05-18T06:19:50;18.40;99.90
30473;DHT22;17263;48.160;11.452;2023-05-18T06:22:16;18.60;98.40
30473;DHT22;17263;48.160;11.452;2023-05-18T06:24:42;18.30;98.50
30473;DHT22;17263;48.160;11.452;2023-05-18T06:27:08;18.10;98.60
30473;DHT22;17263;48.160;11.452;2023-05-18T06:29:34;18.10;98.40
30473;DHT22;17263;48.160;11.452;2023-05-18T06:32:00;18.00;98.10
30473;DHT22;17263;48.160;11.452;2023-05-18T06:34:26;17.90;98.40
30473;DHT22;17263;48.160;11.452;2023-05-18T06:36:52;18.20;97.90
30473;DHT22;17263;48.160;11.452;2023-05-18T06:39:18;18.30;97.90
30473;DHT22;17263;48.160;11.452;2023-05-18T06:41:44;18.50;96.10
30473;DHT22;17263;48.160;11.452;2023-05-18T06:44:11;18.40;96.00
30473;DHT22;17263;48.160;11.452;2023-05-18T06:46:37;18.30;95.90
30473;DHT22;17263;48.160;11.452;2023-05-18T06:49:03;18.30;95.80
30473;DHT22;17263;48.160;11.452;2023-05-18T06:51:30;18.10;96.10
30473;DHT22;17263;48.160;11.452;2023-05-18T06:53:56;17.80;96.00
30473;DHT22;17263;48.160;11.452;2023-05-18T06:56:22;17.60;95.80
30473;DHT22;17263;48.160;11.452;2023-05-18T06:58:48;17.00;96.00
30473;DHT22;17263;48.160;11.452;2023-05-18T07:01:15;16.80;97.20
30473;DHT22;17263;48.160;11.452;2023-05-18T07:03:43;16.70;97.80
30473;DHT22;17263;48.160;11.452;2023-05-18T07:06:09;16.30;97.60
30473;DHT22;17263;48.160;11.452;2023-05-18T07:08:35;15.70;98.70
30473;DHT22;17263;48.160;11.452;2023-05-18T07:11:05;15.60;99.50
30473;DHT22;17263;48.160;11.452;2023-05-18T07:13:31;15.60;99.90
30473;DHT22;17263;48.160;11.452;2023-05-18T07:15:57;16.00;99.90
30473;DHT22;17263;48.160;11.452;2023-05-18T07:18:23;16.20;99.90
30473;DHT22;17263;48.160;11.452;2023-05-18T07:20:49;16.20;99.90
30473;DHT22;17263;48.160;11.452;2023-05-18T07:23:15;16.00;99.90
30473;DHT22;17263;48.160;11.452;2023-05-18T07:25:42;15.70;99.90
30473;DHT22;17263;48.160;11.452;2023-05-18T07:28:08;15.30;99.90
30473;DHT22;17263;48.160;11.452;2023-05-18T07:30:34;15.00;99.90
30473;DHT22;17263;48.160;11.452;2023-05-18T07:33:00;15.10;99.90
30473;DHT22;17263;48.160;11.452;2023-05-18T07:35:26;15.40;99.90
30473;DHT22;17263;48.160;11.452;2023-05-18T07:37:52;15.70;99.90
30473;DHT22;17263;48.160;11.452;2023-05-18T07:40:19;15.80;99.90
30473;DHT22;17263;48.160;11.452;2023-05-18T07:42:45;16.00;99.90
30473;DHT22;17263;48.160;11.452;2023-05-18T07:45:12;16.20;99.90
30473;DHT22;17263;48.160;11.452;2023-05-18T07:47:38;16.20;99.90
30473;DHT22;17263;48.160;11.452;2023-05-18T07:50:04;16.30;99.90
30473;DHT22;17263;48.160;11.452;2023-05-18T07:52:31;16.20;99.90
30473;DHT22;17263;48.160;11.452;2023-05-18T07:54:57;16.30;99.90
30473;DHT22;17263;48.160;11.452;2023-05-18T07:57:23;16.60;99.90
30473;DHT22;17263;48.160;11.452;2023-05-18T07:59:49;16.60;99.90
30473;DHT22;17263;48.160;11.452;2023-05-18T08:02:15;16.80;99.90
30473;DHT22;17263;48.160;11.452;2023-05-18T08:04:42;17.10;99.20
30473;DHT22;17263;48.160;11.452;2023-05-18T08:07:08;17.00;99.70
30473;DHT22;17263;48.160;11.452;2023-05-18T08:09:35;17.10;99.50
30473;DHT22;17263;48.160;11.452;2023-05-18T08:12:01;17.10;99.10
30473;DHT22;17263;48.160;11.452;2023-05-18T08:14:27;16.60;99.40
30473;DHT22;17263;48.160;11.452;2023-05-18T08:16:53;16.60;99.40
30473;DHT22;17263;48.160;11.452;2023-05-18T08:19:19;17.10;99.90
30473;DHT22;17263;48.160;11.452;2023-05-18T08:21:45;17.30;98.60
30473;DHT22;17263;48.160;11.452;2023-05-18T08:24:12;17.30;98.90
30473;DHT22;17263;48.160;11.452;2023-05-18T08:26:38;17.30;98.70
30473;DHT22;17263;48.160;11.452;2023-05-18T08:29:04;17.50;99.40
30473;DHT22;17263;48.160;11.452;2023-05-18T08:31:38;17.80;98.30
30473;DHT22;17263;48.160;11.452;2023-05-18T08:34:07;17.40;97.30
30473;DHT22;17263;48.160;11.452;2023-05-18T08:36:35;16.90;98.40
30473;DHT22;17263;48.160;11.452;2023-05-18T08:39:01;16.80;98.40
30473;DHT22;17263;48.160;11.452;2023-05-18T08:41:29;17.10;99.00
30473;DHT22;17263;48.160;11.452;2023-05-18T08:44:14;17.10;97.10
30473;DHT22;17263;48.160;11.452;2023-05-18T08:46:41;17.10;98.50
30473;DHT22;17263;48.160;11.452;2023-05-18T08:49:09;16.90;97.60
30473;DHT22;17263;48.160;11.452;2023-05-18T08:51:36;16.70;97.50
30473;DHT22;17263;48.160;11.452;2023-05-18T08:54:04;16.70;98.30
30473;DHT22;17263;48.160;11.452;2023-05-18T08:56:31;16.50;98.60
30473;DHT22;17263;48.160;11.452;2023-05-18T08:59:03;16.60;98.60
30473;DHT22;17263;48.160;11.452;2023-05-18T09:01:32;16.40;99.00
30473;DHT22;17263;48.160;11.452;2023-05-18T09:03:59;16.80;99.00
30473;DHT22;17263;48.160;11.452;2023-05-18T09:06:25;17.20;97.20
30473;DHT22;17263;48.160;11.452;2023-05-18T09:08:54;17.30;97.20
30473;DHT22;17263;48.160;11.452;2023-05-18T09:11:22;17.10;97.30
30473;DHT22;17263;48.160;11.452;2023-05-18T09:13:49;16.70;97.20
30473;DHT22;17263;48.160;11.452;2023-05-18T09:16:16;16.60;97.90
30473;DHT22;17263;48.160;11.452;2023-05-18T09:18:42;16.60;97.80
30473;DHT22;17263;48.160;11.452;2023-05-18T09:21:09;16.70;98.20
30473;DHT22;17263;48.160;11.452;2023-05-18T09:23:38;17.30;98.10
30473;DHT22;17263;48.160;11.452;2023-05-18T09:26:04;17.60;97.00
30473;DHT22;17263;48.160;11.452;2023-05-18T09:28:34;17.60;95.90
30473;DHT22;17263;48.160;11.452;2023-05-18T09:31:03;17.70;94.30
30473;DHT22;17263;48.160;11.452;2023-05-18T09:33:34;17.70;94.50
30473;DHT22;17263;48.160;11.452;2023-05-18T09:36:00;17.40;94.50
30473;DHT22;17263;48.160;11.452;2023-05-18T09:38:27;17.20;94.50
30473;DHT22;17263;48.160;11.452;2023-05-18T09:40:53;17.20;94.90
30473;DHT22;17263;48.160;11.452;2023-05-18T09:43:19;17.40;94.40
30473;DHT22;17263;48.160;11.452;2023-05-18T09:45:47;16.90;94.60
30473;DHT22;17263;48.160;11.452;2023-05-18T09:48:14;16.40;95.70
30473;DHT22;17263;48.160;11.452;2023-05-18T09:50:42;16.50;96.60
30473;DHT22;17263;48.160;11.452;2023-05-18T09:53:09;16.70;95.90
30473;DHT22;17263;48.160;11.452;2023-05-18T09:55:47;16.90;96.10
30473;DHT22;17263;48.160;11.452;2023-05-18T09:58:14;16.80;95.30
30473;DHT22;17263;48.160;11.452;2023-05-18T10:00:42;16.60;95.60
30473;DHT22;17263;48.160;11.452;2023-05-18T10:03:19;16.30;95.50
30473;DHT22;17263;48.160;11.452;2023-05-18T10:05:46;16.00;96.40
30473;DHT22;17263;48.160;11.452;2023-05-18T10:08:13;15.60;96.60
30473;DHT22;17263;48.160;11.452;2023-05-18T10:10:46;15.10;97.50
30473;DHT22;17263;48.160;11.452;2023-05-18T10:13:16;14.90;98.70
30473;DHT22;17263;48.160;11.452;2023-05-18T10:15:53;14.60;98.90
30473;DHT22;17263;48.160;11.452;2023-05-18T10:18:24;14.40;99.70
30473;DHT22;17263;48.160;11.452;2023-05-18T10:20:52;14.30;99.90
30473;DHT22;17263;48.160;11.452;2023-05-18T10:23:20;14.30;99.90
30473;DHT22;17263;48.160;11.452;2023-05-18T10:25:48;14.20;99.90
30473;DHT22;17263;48.160;11.452;2023-05-18T10:28:24;14.10;99.90
30473;DHT22;17263;48.160;11.452;2023-05-18T10:30:53;14.00;99.90
30473;DHT22;17263;48.160;11.452;2023-05-18T10:33:26;13.90;99.90
30473;DHT22;17263;48.160;11.452;2023-05-18T10:35:53;13.80;99.90
30473;DHT22;17263;48.160;11.452;2023-05-18T10:38:22;13.80;99.90
30473;DHT22;17263;48.160;11.452;2023-05-18T10:40:50;14.00;99.90
30473;DHT22;17263;48.160;11.452;2023-05-18T10:43:19;14.10;99.90
30473;DHT22;17263;48.160;11.452;2023-05-18T10:45:49;14.20;99.90
30473;DHT22;17263;48.160;11.452;2023-05-18T10:48:18;14.20;99.90
30473;DHT22;17263;48.160;11.452;2023-05-18T10:50:50;14.10;99.90
30473;DHT22;17263;48.160;11.452;2023-05-18T10:53:17;14.10;99.90
30473;DHT22;17263;48.160;11.452;2023-05-18T10:55:46;14.10;99.90
30473;DHT22;17263;48.160;11.452;2023-05-18T10:58:14;14.00;99.90
30473;DHT22;17263;48.160;11.452;2023-05-18T11:00:43;14.00;99.90
30473;DHT22;17263;48.160;11.452;2023-05-18T11:03:13;13.90;99.90
30473;DHT22;17263;48.160;11.452;2023-05-18T11:05:40;13.90;99.90
30473;DHT22;17263;48.160;11.452;2023-05-18T11:08:07;14.00;99.90
30473;DHT22;17263;48.160;11.452;2023-05-18T11:10:43;14.00;99.90
30473;DHT22;17263;48.160;11.452;2023-05-18T11:13:12;14.10;99.90
30473;DHT22;17263;48.160;11.452;2023-05-18T11:18:33;14.00;99.90
30473;DHT22;17263;48.160;11.452;2023-05-18T11:20:59;13.90;99.90
30473;DHT22;17263;48.160;11.452;2023-05-18T11:23:33;13.90;99.90
30473;DHT22;17263;48.160;11.452;2023-05-18T11:26:02;13.90;99.90
30473;DHT22;17263;48.160;11.452;2023-05-18T11:28:28;13.90;99.90
30473;DHT22;17263;48.160;11.452;2023-05-18T11:30:54;13.90;99.90
30473;DHT22;17263;48.160;11.452;2023-05-18T11:33:28;13.90;99.90
30473;DHT22;17263;48.160;11.452;2023-05-18T11:36:02;13.90;99.90
30473;DHT22;17263;48.160;11.452;2023-05-18T11:38:52;14.00;99.90
30473;DHT22;17263;48.160;11.452;2023-05-18T11:41:33;14.00;99.90
30473;DHT22;17263;48.160;11.452;2023-05-18T11:44:14;13.90;99.90
30473;DHT22;17263;48.160;11.452;2023-05-18T11:49:23;13.70;99.90
30473;DHT22;17263;48.160;11.452;2023-05-18T11:52:12;13.60;99.90
30473;DHT22;17263;48.160;11.452;2023-05-18T11:57:07;13.40;99.90
30473;DHT22;17263;48.160;11.452;2023-05-18T11:59:38;13.40;99.90
30473;DHT22;17263;48.160;11.452;2023-05-18T12:02:05;13.40;99.90
30473;DHT22;17263;48.160;11.452;2023-05-18T12:04:31;13.40;99.90
30473;DHT22;17263;48.160;11.452;2023-05-18T12:06:59;13.30;99.90
30473;DHT22;17263;48.160;11.452;2023-05-18T12:09:29;13.40;99.90
30473;DHT22;17263;48.160;11.452;2023-05-18T12:11:56;13.50;99.90
30473;DHT22;17263;48.160;11.452;2023-05-18T12:14:23;13.50;99.90
30473;DHT22;17263;48.160;11.452;2023-05-18T12:16:49;13.60;99.90
30473;DHT22;17263;48.160;11.452;2023-05-18T12:19:16;13.60;99.90
30473;DHT22;17263;48.160;11.452;2023-05-18T12:21:44;13.60;99.90
30473;DHT22;17263;48.160;11.452;2023-05-18T12:24:11;13.50;99.90
30473;DHT22;17263;48.160;11.452;2023-05-18T12:26:37;13.60;99.90
30473;DHT22;17263;48.160;11.452;2023-05-18T12:29:06;13.70;99.90
30473;DHT22;17263;48.160;11.452;2023-05-18T12:31:32;13.80;99.90
30473;DHT22;17263;48.160;11.452;2023-05-18T12:34:00;13.90;99.90
30473;DHT22;17263;48.160;11.452;2023-05-18T12:36:27;13.90;99.90
30473;DHT22;17263;48.160;11.452;2023-05-18T12:38:53;13.90;99.90
30473;DHT22;17263;48.160;11.452;2023-05-18T12:41:23;13.90;99.90
30473;DHT22;17263;48.160;11.452;2023-05-18T12:43:50;14.00;99.90
30473;DHT22;17263;48.160;11.452;2023-05-18T12:46:23;13.90;99.90
30473;DHT22;17263;48.160;11.452;2023-05-18T12:48:57;13.90;99.90
30473;DHT22;17263;48.160;11.452;2023-05-18T12:51:24;13.90;99.90
30473;DHT22;17263;48.160;11.452;2023-05-18T12:53:55;13.80;99.90
30473;DHT22;17263;48.160;11.452;2023-05-18T12:56:21;13.80;99.90
30473;DHT22;17263;48.160;11.452;2023-05-18T12:58:59;13.90;99.90
30473;DHT22;17263;48.160;11.452;2023-05-18T13:01:27;14.00;99.90
30473;DHT22;17263;48.160;11.452;2023-05-18T13:03:54;14.10;99.90
30473;DHT22;17263;48.160;11.452;2023-05-18T13:06:22;14.30;99.90
30473;DHT22;17263;48.160;11.452;2023-05-18T13:08:48;14.50;99.90
30473;DHT22;17263;48.160;11.452;2023-05-18T13:11:14;14.60;99.90
30473;DHT22;17263;48.160;11.452;2023-05-18T13:14:00;14.70;99.90
30473;DHT22;17263;48.160;11.452;2023-05-18T13:16:27;14.70;99.90
30473;DHT22;17263;48.160;11.452;2023-05-18T13:18:59;14.60;99.90
30473;DHT22;17263;48.160;11.452;2023-05-18T13:21:26;14.50;99.90
30473;DHT22;17263;48.160;11.452;2023-05-18T13:23:52;14.40;99.90
30473;DHT22;17263;48.160;11.452;2023-05-18T13:26:22;14.20;99.90
30473;DHT22;17263;48.160;11.452;2023-05-18T13:28:50;14.10;99.90
30473;DHT22;17263;48.160;11.452;2023-05-18T13:31:17;14.10;99.90
30473;DHT22;17263;48.160;11.452;2023-05-18T13:33:44;14.10;99.90
30473;DHT22;17263;48.160;11.452;2023-05-18T13:36:10;14.10;99.90
30473;DHT22;17263;48.160;11.452;2023-05-18T13:38:36;14.00;99.90
30473;DHT22;17263;48.160;11.452;2023-05-18T13:41:03;14.00;99.90
30473;DHT22;17263;48.160;11.452;2023-05-18T13:43:33;14.00;99.90
30473;DHT22;17263;48.160;11.452;2023-05-18T13:45:59;14.00;99.90
30473;DHT22;17263;48.160;11.452;2023-05-18T13:48:25;14.10;99.90
30473;DHT22;17263;48.160;11.452;2023-05-18T13:50:55;14.20;99.90
30473;DHT22;17263;48.160;11.452;2023-05-18T13:53:21;14.30;99.90
30473;DHT22;17263;48.160;11.452;2023-05-18T13:55:48;14.20;99.90
30473;DHT22;17263;48.160;11.452;2023-05-18T13:58:14;14.30;99.90
30473;DHT22;17263;48.160;11.452;2023-05-18T14:00:41;14.30;99.90
30473;DHT22;17263;48.160;11.452;2023-05-18T14:03:07;14.40;99.90
30473;DHT22;17263;48.160;11.452;2023-05-18T14:05:33;14.40;99.90
30473;DHT22;17263;48.160;11.452;2023-05-18T14:07:59;14.50;99.90
30473;DHT22;17263;48.160;11.452;2023-05-18T14:10:26;14.60;99.90
30473;DHT22;17263;48.160;11.452;2023-05-18T14:12:52;14.60;99.90
30473;DHT22;17263;48.160;11.452;2023-05-18T14:15:18;14.70;99.90
30473;DHT22;17263;48.160;11.452;2023-05-18T14:17:44;14.70;99.90
30473;DHT22;17263;48.160;11.452;2023-05-18T14:20:11;14.70;99.90
30473;DHT22;17263;48.160;11.452;2023-05-18T14:22:37;14.70;99.90
30473;DHT22;17263;48.160;11.452;2023-05-18T14:25:04;14.60;99.90
30473;DHT22;17263;48.160;11.452;2023-05-18T14:27:30;14.50;99.90
30473;DHT22;17263;48.160;11.452;2023-05-18T14:29:57;14.30;99.90
30473;DHT22;17263;48.160;11.452;2023-05-18T14:32:23;14.20;99.90
30473;DHT22;17263;48.160;11.452;2023-05-18T14:34:49;14.00;99.90
30473;DHT22;17263;48.160;11.452;2023-05-18T14:37:17;13.90;99.90
30473;DHT22;17263;48.160;11.452;2023-05-18T14:39:43;13.90;99.90
30473;DHT22;17263;48.160;11.452;2023-05-18T14:42:09;13.90;99.90
30473;DHT22;17263;48.160;11.452;2023-05-18T14:44:35;13.80;99.90
30473;DHT22;17263;48.160;11.452;2023-05-18T14:47:01;13.80;99.90
30473;DHT22;17263;48.160;11.452;2023-05-18T14:49:27;13.80;99.90
30473;DHT22;17263;48.160;11.452;2023-05-18T14:51:53;13.70;99.90
30473;DHT22;17263;48.160;11.452;2023-05-18T14:54:19;13.70;99.90
30473;DHT22;17263;48.160;11.452;2023-05-18T14:56:46;13.70;99.90
30473;DHT22;17263;48.160;11.452;2023-05-18T14:59:13;13.70;99.90
30473;DHT22;17263;48.160;11.452;2023-05-18T15:01:39;13.60;99.90
30473;DHT22;17263;48.160;11.452;2023-05-18T15:04:05;13.60;99.90
30473;DHT22;17263;48.160;11.452;2023-05-18T15:06:31;13.50;99.90
30473;DHT22;17263;48.160;11.452;2023-05-18T15:08:57;13.50;99.90
30473;DHT22;17263;48.160;11.452;2023-05-18T15:11:24;13.40;99.90
30473;DHT22;17263;48.160;11.452;2023-05-18T15:13:50;13.40;99.90
30473;DHT22;17263;48.160;11.452;2023-05-18T15:16:16;13.40;99.90
30473;DHT22;17263;48.160;11.452;2023-05-18T15:18:45;13.40;99.90
30473;DHT22;17263;48.160;11.452;2023-05-18T15:21:11;13.30;99.90
30473;DHT22;17263;48.160;11.452;2023-05-18T15:23:37;13.30;99.90
30473;DHT22;17263;48.160;11.452;2023-05-18T15:26:03;13.30;99.90
30473;DHT22;17263;48.160;11.452;2023-05-18T15:28:29;13.20;99.90
30473;DHT22;17263;48.160;11.452;2023-05-18T15:30:55;13.20;99.90
30473;DHT22;17263;48.160;11.452;2023-05-18T15:33:21;13.20;99.90
30473;DHT22;17263;48.160;11.452;2023-05-18T15:35:47;13.20;99.90
30473;DHT22;17263;48.160;11.452;2023-05-18T15:38:13;13.20;99.90